Hauptseite
METAR-TAF:

METAR-TAF

Flughäfen :

Aigen im Ennstal, Österreich

Breite: 47-32N, Länge: 014-08E, Höhe: 638 m

METAR: fehlend

Zeit: 18:46 (17:46 UTC)

Prognose

Neuester Wetterbericht von vor 6 Stunden und 31 Minuten, um 11:15 UTC
Gültige Prognose vom 30 um 12 UTC bis 30 um 21 UTC
Wind 4 kt aus unterschiedlichen Richtungen
Sichtweite 10 km oder mehr
Himmel klar
Wahrscheinlichkeit 30% :
Zeitweise
vom 30 um 19 UTC bis 30 um 21 UTC
Sichtweite: 1000 m
Leicht bewölkt in der Höhe von 100 ft

TAF: LOXA 301115Z 3012/3021 VRB04KT 9999 SKC PROB30 TEMPO 3019/3021 1000 FZBCFG FEW001

Wetterbeobachtungen und Prognosen von mehr als 4000 Flughäfen (METAR und TAF Bericht).

Die verfügbaren Stationen werden durch gelbe und rote Markierungen auf der Karte dargestellt.

Führen Sie die Maus auf sie, um den Namen der Station zu sehen.

Darauf klicken, um die Beobachtung von Wetterbeobachtungen und Prognosen zu sehen.

Um die Karte zu ändern : klicken Sie auf den grünen Tasten mit einem schwarzen Kreuz Zum Vergrößern, auf den grünen Button mit einem Gedankenstrich zu verkleinern, oder auf die grünen Pfeile für benachbarte Karten.


METAR-TAF: